sensor_id;sensor_type;location;lat;lon;timestamp;pressure;altitude;pressure_sealevel;temperature;humidity
64827;BME280;51265;53.972;12.286;2023-02-17T00:00:12;100954.91;;;5.61;100.00
64827;BME280;51265;53.972;12.286;2023-02-17T00:02:38;100946.22;;;5.69;100.00
64827;BME280;51265;53.972;12.286;2023-02-17T00:05:05;100941.31;;;5.71;100.00
64827;BME280;51265;53.972;12.286;2023-02-17T00:07:32;100941.00;;;5.67;100.00
64827;BME280;51265;53.972;12.286;2023-02-17T00:09:59;100934.75;;;5.72;100.00
64827;BME280;51265;53.972;12.286;2023-02-17T00:12:25;100928.16;;;5.68;100.00
64827;BME280;51265;53.972;12.286;2023-02-17T00:14:52;100924.88;;;5.66;100.00
64827;BME280;51265;53.972;12.286;2023-02-17T00:17:18;100932.50;;;5.64;100.00
64827;BME280;51265;53.972;12.286;2023-02-17T00:19:44;100933.03;;;5.61;100.00
64827;BME280;51265;53.972;12.286;2023-02-17T00:22:10;100928.06;;;5.58;100.00
64827;BME280;51265;53.972;12.286;2023-02-17T00:24:38;100925.91;;;5.60;100.00
64827;BME280;51265;53.972;12.286;2023-02-17T00:27:05;100926.94;;;5.54;100.00
64827;BME280;51265;53.972;12.286;2023-02-17T00:29:32;100930.53;;;5.59;100.00
64827;BME280;51265;53.972;12.286;2023-02-17T00:31:58;100933.59;;;5.63;100.00
64827;BME280;51265;53.972;12.286;2023-02-17T00:34:24;100927.88;;;5.64;100.00
64827;BME280;51265;53.972;12.286;2023-02-17T00:36:53;100928.06;;;5.58;100.00
64827;BME280;51265;53.972;12.286;2023-02-17T00:39:19;100926.22;;;5.63;100.00
64827;BME280;51265;53.972;12.286;2023-02-17T00:41:48;100923.16;;;5.60;100.00
64827;BME280;51265;53.972;12.286;2023-02-17T00:44:21;100919.22;;;5.45;100.00
64827;BME280;51265;53.972;12.286;2023-02-17T00:46:51;100917.56;;;5.44;100.00
64827;BME280;51265;53.972;12.286;2023-02-17T00:49:23;100922.41;;;5.37;100.00
64827;BME280;51265;53.972;12.286;2023-02-17T00:51:50;100929.00;;;5.41;100.00
64827;BME280;51265;53.972;12.286;2023-02-17T00:54:17;100931.47;;;5.43;100.00
64827;BME280;51265;53.972;12.286;2023-02-17T00:56:44;100922.22;;;5.44;100.00
64827;BME280;51265;53.972;12.286;2023-02-17T00:59:11;100923.53;;;5.41;100.00
64827;BME280;51265;53.972;12.286;2023-02-17T01:01:38;100926.00;;;5.43;100.00
64827;BME280;51265;53.972;12.286;2023-02-17T01:04:04;100913.75;;;5.45;100.00
64827;BME280;51265;53.972;12.286;2023-02-17T01:06:33;100911.09;;;5.56;100.00
64827;BME280;51265;53.972;12.286;2023-02-17T01:09:00;100910.03;;;5.57;100.00
64827;BME280;51265;53.972;12.286;2023-02-17T01:11:29;100891.69;;;5.52;100.00
64827;BME280;51265;53.972;12.286;2023-02-17T01:13:59;100890.91;;;5.57;100.00
64827;BME280;51265;53.972;12.286;2023-02-17T01:16:29;100878.88;;;5.31;100.00
64827;BME280;51265;53.972;12.286;2023-02-17T01:18:58;100878.69;;;5.37;100.00
64827;BME280;51265;53.972;12.286;2023-02-17T01:21:27;100873.28;;;5.42;100.00
64827;BME280;51265;53.972;12.286;2023-02-17T01:23:56;100871.09;;;5.39;100.00
64827;BME280;51265;53.972;12.286;2023-02-17T01:26:24;100867.78;;;5.37;100.00
64827;BME280;51265;53.972;12.286;2023-02-17T01:28:52;100856.53;;;5.34;100.00
64827;BME280;51265;53.972;12.286;2023-02-17T01:31:20;100859.66;;;5.47;100.00
64827;BME280;51265;53.972;12.286;2023-02-17T01:33:47;100848.63;;;5.64;100.00
64827;BME280;51265;53.972;12.286;2023-02-17T01:36:18;100840.22;;;5.76;100.00
64827;BME280;51265;53.972;12.286;2023-02-17T01:38:45;100831.34;;;5.59;100.00
64827;BME280;51265;53.972;12.286;2023-02-17T01:41:13;100821.69;;;5.46;100.00
64827;BME280;51265;53.972;12.286;2023-02-17T01:43:39;100819.13;;;5.34;100.00
64827;BME280;51265;53.972;12.286;2023-02-17T01:46:07;100816.69;;;5.38;100.00
64827;BME280;51265;53.972;12.286;2023-02-17T01:48:41;100821.03;;;5.34;100.00
64827;BME280;51265;53.972;12.286;2023-02-17T01:51:27;100826.25;;;5.35;100.00
64827;BME280;51265;53.972;12.286;2023-02-17T01:54:02;100821.28;;;5.32;100.00
64827;BME280;51265;53.972;12.286;2023-02-17T01:56:32;100811.19;;;5.33;100.00
64827;BME280;51265;53.972;12.286;2023-02-17T01:59:04;100814.44;;;5.30;100.00
64827;BME280;51265;53.972;12.286;2023-02-17T02:01:32;100818.81;;;5.04;100.00
64827;BME280;51265;53.972;12.286;2023-02-17T02:04:01;100808.63;;;4.94;100.00
64827;BME280;51265;53.972;12.286;2023-02-17T02:06:51;100805.59;;;4.90;100.00
64827;BME280;51265;53.972;12.286;2023-02-17T02:09:41;100805.63;;;4.95;100.00
64827;BME280;51265;53.972;12.286;2023-02-17T02:12:23;100794.72;;;4.95;100.00
64827;BME280;51265;53.972;12.286;2023-02-17T02:14:51;100800.19;;;4.95;100.00
64827;BME280;51265;53.972;12.286;2023-02-17T02:17:47;100793.59;;;4.91;100.00
64827;BME280;51265;53.972;12.286;2023-02-17T02:32:37;100781.59;;;4.92;100.00
64827;BME280;51265;53.972;12.286;2023-02-17T02:35:10;100782.97;;;4.95;100.00
64827;BME280;51265;53.972;12.286;2023-02-17T02:38:13;100790.91;;;4.96;100.00
64827;BME280;51265;53.972;12.286;2023-02-17T02:41:07;100793.09;;;4.94;100.00
64827;BME280;51265;53.972;12.286;2023-02-17T02:43:41;100793.63;;;4.96;100.00
64827;BME280;51265;53.972;12.286;2023-02-17T02:46:08;100791.72;;;4.97;100.00
64827;BME280;51265;53.972;12.286;2023-02-17T02:48:35;100793.75;;;5.07;100.00
64827;BME280;51265;53.972;12.286;2023-02-17T02:51:25;100782.75;;;5.02;100.00
64827;BME280;51265;53.972;12.286;2023-02-17T02:54:02;100773.50;;;5.03;100.00
64827;BME280;51265;53.972;12.286;2023-02-17T02:57:03;100776.25;;;5.03;100.00
64827;BME280;51265;53.972;12.286;2023-02-17T03:02:48;100765.97;;;5.15;100.00
64827;BME280;51265;53.972;12.286;2023-02-17T03:08:17;100774.09;;;5.10;100.00
64827;BME280;51265;53.972;12.286;2023-02-17T03:10:47;100776.66;;;5.21;100.00
64827;BME280;51265;53.972;12.286;2023-02-17T03:13:15;100775.19;;;5.36;100.00
64827;BME280;51265;53.972;12.286;2023-02-17T03:15:42;100772.66;;;5.29;100.00
64827;BME280;51265;53.972;12.286;2023-02-17T03:18:08;100781.31;;;5.21;100.00
64827;BME280;51265;53.972;12.286;2023-02-17T03:20:40;100781.94;;;5.28;100.00
64827;BME280;51265;53.972;12.286;2023-02-17T03:23:08;100782.63;;;5.45;100.00
64827;BME280;51265;53.972;12.286;2023-02-17T03:25:35;100772.22;;;5.42;100.00
64827;BME280;51265;53.972;12.286;2023-02-17T03:31:59;100766.25;;;5.50;100.00
64827;BME280;51265;53.972;12.286;2023-02-17T03:34:25;100755.91;;;5.53;100.00
64827;BME280;51265;53.972;12.286;2023-02-17T03:36:52;100768.00;;;5.62;100.00
64827;BME280;51265;53.972;12.286;2023-02-17T03:39:18;100758.69;;;5.58;100.00
64827;BME280;51265;53.972;12.286;2023-02-17T03:41:46;100744.44;;;5.56;100.00
64827;BME280;51265;53.972;12.286;2023-02-17T03:44:15;100751.31;;;5.58;100.00
64827;BME280;51265;53.972;12.286;2023-02-17T03:46:41;100740.38;;;5.58;100.00
64827;BME280;51265;53.972;12.286;2023-02-17T03:49:07;100742.59;;;5.61;100.00
64827;BME280;51265;53.972;12.286;2023-02-17T03:51:33;100742.88;;;5.65;100.00
64827;BME280;51265;53.972;12.286;2023-02-17T03:54:00;100747.81;;;5.68;100.00
64827;BME280;51265;53.972;12.286;2023-02-17T03:56:26;100736.94;;;5.73;100.00
64827;BME280;51265;53.972;12.286;2023-02-17T03:58:52;100740.78;;;5.77;100.00
64827;BME280;51265;53.972;12.286;2023-02-17T04:01:19;100743.50;;;5.77;100.00
64827;BME280;51265;53.972;12.286;2023-02-17T04:03:59;100750.13;;;5.86;100.00
64827;BME280;51265;53.972;12.286;2023-02-17T04:06:25;100754.84;;;5.96;100.00
64827;BME280;51265;53.972;12.286;2023-02-17T04:08:52;100749.91;;;5.93;100.00
64827;BME280;51265;53.972;12.286;2023-02-17T04:11:18;100751.84;;;5.97;100.00
64827;BME280;51265;53.972;12.286;2023-02-17T04:13:44;100750.19;;;5.96;100.00
64827;BME280;51265;53.972;12.286;2023-02-17T04:16:10;100743.09;;;5.95;100.00
64827;BME280;51265;53.972;12.286;2023-02-17T04:18:37;100738.16;;;5.92;100.00
64827;BME280;51265;53.972;12.286;2023-02-17T04:21:04;100723.59;;;5.87;100.00
64827;BME280;51265;53.972;12.286;2023-02-17T04:23:30;100725.81;;;5.90;100.00
64827;BME280;51265;53.972;12.286;2023-02-17T04:25:57;100724.72;;;5.91;100.00
64827;BME280;51265;53.972;12.286;2023-02-17T04:28:23;100723.59;;;5.87;100.00
64827;BME280;51265;53.972;12.286;2023-02-17T04:30:50;100716.84;;;5.94;100.00
64827;BME280;51265;53.972;12.286;2023-02-17T04:33:16;100697.13;;;5.92;100.00
64827;BME280;51265;53.972;12.286;2023-02-17T04:35:42;100715.78;;;6.06;100.00
64827;BME280;51265;53.972;12.286;2023-02-17T04:38:09;100725.09;;;6.05;100.00
64827;BME280;51265;53.972;12.286;2023-02-17T04:40:36;100730.56;;;6.05;100.00
64827;BME280;51265;53.972;12.286;2023-02-17T04:43:02;100736.63;;;6.12;100.00
64827;BME280;51265;53.972;12.286;2023-02-17T04:45:29;100743.22;;;6.21;100.00
64827;BME280;51265;53.972;12.286;2023-02-17T04:47:55;100720.78;;;6.19;100.00
64827;BME280;51265;53.972;12.286;2023-02-17T04:50:21;100726.78;;;6.16;100.00
64827;BME280;51265;53.972;12.286;2023-02-17T04:52:47;100716.94;;;6.15;100.00
64827;BME280;51265;53.972;12.286;2023-02-17T04:55:14;100707.91;;;6.14;100.00
64827;BME280;51265;53.972;12.286;2023-02-17T04:57:40;100697.75;;;6.10;100.00
64827;BME280;51265;53.972;12.286;2023-02-17T05:00:07;100698.34;;;6.12;100.00
64827;BME280;51265;53.972;12.286;2023-02-17T05:02:33;100692.88;;;6.12;100.00
64827;BME280;51265;53.972;12.286;2023-02-17T05:05:00;100683.28;;;6.14;100.00
64827;BME280;51265;53.972;12.286;2023-02-17T05:07:27;100679.22;;;6.17;100.00
64827;BME280;51265;53.972;12.286;2023-02-17T05:09:53;100683.31;;;6.19;100.00
64827;BME280;51265;53.972;12.286;2023-02-17T05:12:19;100678.69;;;6.20;100.00
64827;BME280;51265;53.972;12.286;2023-02-17T05:14:46;100677.06;;;6.29;100.00
64827;BME280;51265;53.972;12.286;2023-02-17T05:17:12;100669.94;;;6.28;100.00
64827;BME280;51265;53.972;12.286;2023-02-17T05:19:38;100671.06;;;6.27;100.00
64827;BME280;51265;53.972;12.286;2023-02-17T05:22:04;100674.03;;;6.31;100.00
64827;BME280;51265;53.972;12.286;2023-02-17T05:24:30;100667.81;;;6.45;100.00
64827;BME280;51265;53.972;12.286;2023-02-17T05:26:57;100668.91;;;6.49;100.00
64827;BME280;51265;53.972;12.286;2023-02-17T05:29:23;100659.88;;;6.49;100.00
64827;BME280;51265;53.972;12.286;2023-02-17T05:31:49;100647.56;;;6.41;100.00
64827;BME280;51265;53.972;12.286;2023-02-17T05:34:16;100645.91;;;6.40;100.00
64827;BME280;51265;53.972;12.286;2023-02-17T05:36:42;100648.13;;;6.48;100.00
64827;BME280;51265;53.972;12.286;2023-02-17T05:39:08;100651.38;;;6.51;100.00
64827;BME280;51265;53.972;12.286;2023-02-17T05:41:34;100644.00;;;6.56;100.00
64827;BME280;51265;53.972;12.286;2023-02-17T05:44:00;100641.81;;;6.48;100.00
64827;BME280;51265;53.972;12.286;2023-02-17T05:46:26;100640.72;;;6.54;100.00
64827;BME280;51265;53.972;12.286;2023-02-17T05:48:53;100649.75;;;6.60;100.00
64827;BME280;51265;53.972;12.286;2023-02-17T05:51:19;100651.97;;;6.68;100.00
64827;BME280;51265;53.972;12.286;2023-02-17T05:53:45;100647.59;;;6.82;100.00
64827;BME280;51265;53.972;12.286;2023-02-17T05:56:11;100644.84;;;6.67;100.00
64827;BME280;51265;53.972;12.286;2023-02-17T05:58:37;100632.81;;;6.63;100.00
64827;BME280;51265;53.972;12.286;2023-02-17T06:01:10;100628.41;;;6.77;100.00
64827;BME280;51265;53.972;12.286;2023-02-17T06:03:37;100619.13;;;6.73;100.00
64827;BME280;51265;53.972;12.286;2023-02-17T06:06:03;100613.66;;;6.83;100.00
64827;BME280;51265;53.972;12.286;2023-02-17T06:08:30;100608.72;;;6.90;100.00
64827;BME280;51265;53.972;12.286;2023-02-17T06:10:56;100599.41;;;6.96;100.00
64827;BME280;51265;53.972;12.286;2023-02-17T06:13:22;100585.72;;;6.81;100.00
64827;BME280;51265;53.972;12.286;2023-02-17T06:15:49;100586.81;;;6.85;100.00
64827;BME280;51265;53.972;12.286;2023-02-17T06:18:15;100580.25;;;6.91;100.00
64827;BME280;51265;53.972;12.286;2023-02-17T06:20:41;100578.63;;;6.90;100.00
64827;BME280;51265;53.972;12.286;2023-02-17T06:23:07;100582.16;;;6.91;100.00
64827;BME280;51265;53.972;12.286;2023-02-17T06:25:33;100578.63;;;6.90;100.00
64827;BME280;51265;53.972;12.286;2023-02-17T06:28:00;100570.38;;;6.95;100.00
64827;BME280;51265;53.972;12.286;2023-02-17T06:30:26;100572.03;;;6.91;100.00
64827;BME280;51265;53.972;12.286;2023-02-17T06:32:52;100565.47;;;6.92;100.00
64827;BME280;51265;53.972;12.286;2023-02-17T06:35:18;100571.47;;;7.05;100.00
64827;BME280;51265;53.972;12.286;2023-02-17T06:37:44;100565.44;;;6.97;100.00
64827;BME280;51265;53.972;12.286;2023-02-17T06:40:11;100561.63;;;6.98;100.00
64827;BME280;51265;53.972;12.286;2023-02-17T06:42:37;100560.53;;;6.99;100.00
64827;BME280;51265;53.972;12.286;2023-02-17T06:45:03;100554.50;;;6.97;100.00
64827;BME280;51265;53.972;12.286;2023-02-17T06:47:34;100550.94;;;7.07;100.00
64827;BME280;51265;53.972;12.286;2023-02-17T06:50:01;100541.31;;;7.10;100.00
64827;BME280;51265;53.972;12.286;2023-02-17T06:52:27;100536.91;;;7.19;100.00
64827;BME280;51265;53.972;12.286;2023-02-17T06:54:53;100529.78;;;7.18;100.00
64827;BME280;51265;53.972;12.286;2023-02-17T06:57:20;100521.06;;;7.16;100.00
64827;BME280;51265;53.972;12.286;2023-02-17T06:59:46;100523.78;;;7.21;100.00
64827;BME280;51265;53.972;12.286;2023-02-17T07:02:13;100513.63;;;7.21;100.00
64827;BME280;51265;53.972;12.286;2023-02-17T07:04:40;100509.50;;;7.29;100.00
64827;BME280;51265;53.972;12.286;2023-02-17T07:07:07;100497.97;;;7.27;100.00
64827;BME280;51265;53.972;12.286;2023-02-17T07:09:33;100491.44;;;7.28;100.00
64827;BME280;51265;53.972;12.286;2023-02-17T07:12:00;100473.63;;;7.26;100.00
64827;BME280;51265;53.972;12.286;2023-02-17T07:14:26;100478.34;;;7.15;100.00
64827;BME280;51265;53.972;12.286;2023-02-17T07:16:53;100468.47;;;7.14;100.00
64827;BME280;51265;53.972;12.286;2023-02-17T07:19:19;100459.72;;;7.12;100.00
64827;BME280;51265;53.972;12.286;2023-02-17T07:21:45;100456.69;;;7.13;100.00
64827;BME280;51265;53.972;12.286;2023-02-17T07:24:12;100456.09;;;7.21;100.00
64827;BME280;51265;53.972;12.286;2023-02-17T07:26:38;100450.38;;;7.18;100.00
64827;BME280;51265;53.972;12.286;2023-02-17T07:29:06;100456.69;;;7.13;100.00
64827;BME280;51265;53.972;12.286;2023-02-17T07:31:33;100458.56;;;7.23;100.00
64827;BME280;51265;53.972;12.286;2023-02-17T07:34:00;100453.09;;;7.18;100.00
64827;BME280;51265;53.972;12.286;2023-02-17T07:36:27;100449.84;;;7.16;100.00
64827;BME280;51265;53.972;12.286;2023-02-17T07:38:53;100444.31;;;7.26;100.00
64827;BME280;51265;53.972;12.286;2023-02-17T07:41:22;100435.50;;;7.34;100.00
64827;BME280;51265;53.972;12.286;2023-02-17T07:43:56;100422.34;;;7.36;100.00
64827;BME280;51265;53.972;12.286;2023-02-17T07:46:23;100425.91;;;7.37;100.00
64827;BME280;51265;53.972;12.286;2023-02-17T07:48:50;100425.34;;;7.40;100.00
64827;BME280;51265;53.972;12.286;2023-02-17T07:51:19;100426.13;;;7.45;100.00
64827;BME280;51265;53.972;12.286;2023-02-17T07:53:47;100420.41;;;7.42;100.00
64827;BME280;51265;53.972;12.286;2023-02-17T07:56:14;100420.13;;;7.38;100.00
64827;BME280;51265;53.972;12.286;2023-02-17T07:58:42;100418.47;;;7.42;100.00
64827;BME280;51265;53.972;12.286;2023-02-17T08:01:15;100421.75;;;7.44;100.00
64827;BME280;51265;53.972;12.286;2023-02-17T08:03:42;100410.75;;;7.49;100.00
64827;BME280;51265;53.972;12.286;2023-02-17T08:06:10;100411.31;;;7.46;100.00
64827;BME280;51265;53.972;12.286;2023-02-17T08:08:37;100411.03;;;7.48;100.00
64827;BME280;51265;53.972;12.286;2023-02-17T08:11:22;100399.50;;;7.51;100.00
64827;BME280;51265;53.972;12.286;2023-02-17T08:14:06;100385.53;;;7.53;100.00
64827;BME280;51265;53.972;12.286;2023-02-17T08:16:32;100390.41;;;7.61;100.00
64827;BME280;51265;53.972;12.286;2023-02-17T08:18:59;100387.03;;;7.69;100.00
64827;BME280;51265;53.972;12.286;2023-02-17T08:21:25;100390.09;;;7.67;100.00
64827;BME280;51265;53.972;12.286;2023-02-17T08:23:52;100382.63;;;7.73;100.00
64827;BME280;51265;53.972;12.286;2023-02-17T08:26:19;100378.81;;;7.74;100.00
64827;BME280;51265;53.972;12.286;2023-02-17T08:28:46;100374.38;;;7.78;100.00
64827;BME280;51265;53.972;12.286;2023-02-17T08:31:19;100359.88;;;7.78;100.00
64827;BME280;51265;53.972;12.286;2023-02-17T08:33:46;100359.81;;;7.83;100.00
64827;BME280;51265;53.972;12.286;2023-02-17T08:36:12;100356.78;;;7.84;100.00
64827;BME280;51265;53.972;12.286;2023-02-17T08:38:39;100360.06;;;7.86;100.00
64827;BME280;51265;53.972;12.286;2023-02-17T08:43:43;100339.06;;;7.71;100.00
64827;BME280;51265;53.972;12.286;2023-02-17T08:46:10;100334.97;;;7.69;100.00
64827;BME280;51265;53.972;12.286;2023-02-17T08:48:37;100336.63;;;7.65;100.00
64827;BME280;51265;53.972;12.286;2023-02-17T08:51:04;100331.66;;;7.72;100.00
64827;BME280;51265;53.972;12.286;2023-02-17T08:53:30;100329.16;;;7.76;100.00
64827;BME280;51265;53.972;12.286;2023-02-17T08:55:56;100334.59;;;7.81;100.00
64827;BME280;51265;53.972;12.286;2023-02-17T08:58:22;100347.69;;;7.89;100.00
64827;BME280;51265;53.972;12.286;2023-02-17T09:00:49;100341.38;;;7.88;100.00
64827;BME280;51265;53.972;12.286;2023-02-17T09:03:15;100332.59;;;7.91;100.00
64827;BME280;51265;53.972;12.286;2023-02-17T09:05:42;100320.22;;;7.94;100.00
64827;BME280;51265;53.972;12.286;2023-02-17T09:08:08;100307.91;;;7.91;100.00
64827;BME280;51265;53.972;12.286;2023-02-17T09:10:36;100315.53;;;7.99;100.00
64827;BME280;51265;53.972;12.286;2023-02-17T09:13:03;100309.50;;;7.97;100.00
64827;BME280;51265;53.972;12.286;2023-02-17T09:15:30;100306.19;;;8.01;100.00
64827;BME280;51265;53.972;12.286;2023-02-17T09:17:56;100311.03;;;8.09;100.00
64827;BME280;51265;53.972;12.286;2023-02-17T09:20:22;100313.72;;;8.14;100.00
64827;BME280;51265;53.972;12.286;2023-02-17T09:22:48;100299.44;;;8.17;100.00
64827;BME280;51265;53.972;12.286;2023-02-17T09:25:14;100293.47;;;8.34;100.00
64827;BME280;51265;53.972;12.286;2023-02-17T09:27:41;100284.94;;;8.35;100.00
64827;BME280;51265;53.972;12.286;2023-02-17T09:30:07;100261.69;;;8.33;100.00
64827;BME280;51265;53.972;12.286;2023-02-17T09:32:33;100255.59;;;8.12;100.00
64827;BME280;51265;53.972;12.286;2023-02-17T09:34:59;100250.63;;;8.14;100.00
64827;BME280;51265;53.972;12.286;2023-02-17T09:37:28;100233.94;;;8.10;100.00
64827;BME280;51265;53.972;12.286;2023-02-17T09:39:54;100237.31;;;8.02;100.00
64827;BME280;51265;53.972;12.286;2023-02-17T09:42:22;100244.66;;;8.07;100.00
64827;BME280;51265;53.972;12.286;2023-02-17T09:45:00;100246.44;;;8.21;100.00
64827;BME280;51265;53.972;12.286;2023-02-17T09:47:42;100242.00;;;8.26;100.00
64827;BME280;51265;53.972;12.286;2023-02-17T09:50:16;100243.84;;;8.30;100.00
64827;BME280;51265;53.972;12.286;2023-02-17T09:52:56;100238.91;;;8.32;100.00
64827;BME280;51265;53.972;12.286;2023-02-17T09:55:41;100227.09;;;8.37;100.00
64827;BME280;51265;53.972;12.286;2023-02-17T09:58:17;100221.59;;;8.37;100.00
64827;BME280;51265;53.972;12.286;2023-02-17T10:00:47;100220.75;;;8.36;100.00
64827;BME280;51265;53.972;12.286;2023-02-17T10:03:19;100190.28;;;8.38;100.00
64827;BME280;51265;53.972;12.286;2023-02-17T10:05:53;100209.72;;;8.41;100.00
64827;BME280;51265;53.972;12.286;2023-02-17T10:08:26;100191.09;;;8.38;100.00
64827;BME280;51265;53.972;12.286;2023-02-17T10:13:36;100176.13;;;8.50;100.00
64827;BME280;51265;53.972;12.286;2023-02-17T10:16:07;100157.00;;;8.44;100.00
64827;BME280;51265;53.972;12.286;2023-02-17T10:18:39;100160.84;;;8.43;100.00
64827;BME280;51265;53.972;12.286;2023-02-17T10:21:11;100167.16;;;8.44;100.00
64827;BME280;51265;53.972;12.286;2023-02-17T10:23:44;100162.94;;;8.52;100.00
64827;BME280;51265;53.972;12.286;2023-02-17T10:29:29;100153.72;;;8.42;100.00
64827;BME280;51265;53.972;12.286;2023-02-17T10:32:21;100135.56;;;8.46;100.00
64827;BME280;51265;53.972;12.286;2023-02-17T10:35:12;100127.84;;;8.48;100.00
64827;BME280;51265;53.972;12.286;2023-02-17T10:37:45;100122.88;;;8.51;100.00
64827;BME280;51265;53.972;12.286;2023-02-17T10:40:19;100109.66;;;8.53;100.00
64827;BME280;51265;53.972;12.286;2023-02-17T10:42:49;100106.25;;;8.61;100.00
64827;BME280;51265;53.972;12.286;2023-02-17T10:45:32;100082.75;;;8.55;100.00
64827;BME280;51265;53.972;12.286;2023-02-17T10:48:08;100083.25;;;8.57;100.00
64827;BME280;51265;53.972;12.286;2023-02-17T10:50:40;100082.44;;;8.56;100.00
64827;BME280;51265;53.972;12.286;2023-02-17T10:53:20;100089.78;;;8.61;100.00
64827;BME280;51265;53.972;12.286;2023-02-17T10:58:34;100078.19;;;8.64;100.00
64827;BME280;51265;53.972;12.286;2023-02-17T11:01:03;100083.69;;;8.64;100.00
64827;BME280;51265;53.972;12.286;2023-02-17T11:03:35;100088.59;;;8.67;100.00
64827;BME280;51265;53.972;12.286;2023-02-17T11:06:05;100071.94;;;8.77;100.00
64827;BME280;51265;53.972;12.286;2023-02-17T11:08:48;100066.28;;;8.87;100.00
64827;BME280;51265;53.972;12.286;2023-02-17T11:11:23;100070.16;;;8.86;100.00
64827;BME280;51265;53.972;12.286;2023-02-17T11:14:20;100076.84;;;8.80;100.00
64827;BME280;51265;53.972;12.286;2023-02-17T11:16:56;100072.56;;;8.74;100.00
64827;BME280;51265;53.972;12.286;2023-02-17T11:19:27;100069.19;;;8.77;100.00
64827;BME280;51265;53.972;12.286;2023-02-17T11:21:57;100076.41;;;8.73;100.00
64827;BME280;51265;53.972;12.286;2023-02-17T11:24:25;100070.09;;;8.72;100.00
64827;BME280;51265;53.972;12.286;2023-02-17T11:27:18;100060.97;;;8.77;100.00
64827;BME280;51265;53.972;12.286;2023-02-17T11:29:48;100062.50;;;8.83;100.00
64827;BME280;51265;53.972;12.286;2023-02-17T11:32:15;100051.22;;;8.85;100.00
64827;BME280;51265;53.972;12.286;2023-02-17T11:34:42;100044.69;;;8.81;100.00
64827;BME280;51265;53.972;12.286;2023-02-17T11:39:43;100030.59;;;8.87;100.00
64827;BME280;51265;53.972;12.286;2023-02-17T11:42:24;100039.44;;;8.84;100.00
64827;BME280;51265;53.972;12.286;2023-02-17T11:44:51;100032.91;;;8.80;100.00
64827;BME280;51265;53.972;12.286;2023-02-17T11:50:25;100029.56;;;8.83;100.00
64827;BME280;51265;53.972;12.286;2023-02-17T11:53:11;100010.78;;;8.90;100.00
64827;BME280;51265;53.972;12.286;2023-02-17T11:58:25;100018.47;;;8.88;100.00
64827;BME280;51265;53.972;12.286;2023-02-17T12:07:11;100018.09;;;9.09;100.00
64827;BME280;51265;53.972;12.286;2023-02-17T12:10:06;100001.41;;;8.91;100.00
64827;BME280;51265;53.972;12.286;2023-02-17T12:12:54;100004.56;;;8.98;100.00
64827;BME280;51265;53.972;12.286;2023-02-17T12:18:29;99990.44;;;9.05;100.00
64827;BME280;51265;53.972;12.286;2023-02-17T12:21:09;100009.22;;;8.98;100.00
64827;BME280;51265;53.972;12.286;2023-02-17T12:29:16;99981.66;;;8.89;100.00
64827;BME280;51265;53.972;12.286;2023-02-17T12:32:02;99986.16;;;8.99;100.00
64827;BME280;51265;53.972;12.286;2023-02-17T12:34:37;100001.00;;;8.98;100.00
64827;BME280;51265;53.972;12.286;2023-02-17T12:37:13;99982.28;;;9.14;100.00
64827;BME280;51265;53.972;12.286;2023-02-17T12:39:48;99994.50;;;9.08;100.00
64827;BME280;51265;53.972;12.286;2023-02-17T12:42:27;99986.47;;;9.11;100.00
64827;BME280;51265;53.972;12.286;2023-02-17T12:44:59;99975.34;;;9.03;100.00
64827;BME280;51265;53.972;12.286;2023-02-17T12:47:38;99979.66;;;8.95;100.00
64827;BME280;51265;53.972;12.286;2023-02-17T12:50:18;99972.63;;;9.03;100.00
64827;BME280;51265;53.972;12.286;2023-02-17T12:52:47;99983.53;;;9.08;100.00
64827;BME280;51265;53.972;12.286;2023-02-17T12:55:20;99967.66;;;9.05;100.00
64827;BME280;51265;53.972;12.286;2023-02-17T12:57:51;99972.50;;;8.94;100.00
64827;BME280;51265;53.972;12.286;2023-02-17T13:00:41;99971.41;;;8.95;100.00
64827;BME280;51265;53.972;12.286;2023-02-17T13:03:09;99975.56;;;8.92;100.00
64827;BME280;51265;53.972;12.286;2023-02-17T13:05:43;99974.97;;;8.95;100.00
64827;BME280;51265;53.972;12.286;2023-02-17T13:08:26;99978.81;;;8.94;100.00
64827;BME280;51265;53.972;12.286;2023-02-17T13:11:05;99982.91;;;8.97;100.00
64827;BME280;51265;53.972;12.286;2023-02-17T13:13:33;99982.50;;;9.04;100.00
64827;BME280;51265;53.972;12.286;2023-02-17T13:18:30;99985.25;;;9.04;100.00
64827;BME280;51265;53.972;12.286;2023-02-17T13:21:00;99975.34;;;9.03;100.00
64827;BME280;51265;53.972;12.286;2023-02-17T13:23:38;99976.59;;;9.10;100.00
64827;BME280;51265;53.972;12.286;2023-02-17T13:28:50;99977.00;;;9.04;100.00
64827;BME280;51265;53.972;12.286;2023-02-17T13:31:23;99968.44;;;9.05;100.00
64827;BME280;51265;53.972;12.286;2023-02-17T13:33:55;99974.75;;;9.06;100.00
64827;BME280;51265;53.972;12.286;2023-02-17T13:39:04;99977.50;;;9.06;100.00
64827;BME280;51265;53.972;12.286;2023-02-17T13:41:44;99976.38;;;9.07;100.00
64827;BME280;51265;53.972;12.286;2023-02-17T13:44:31;99964.28;;;9.08;100.00
64827;BME280;51265;53.972;12.286;2023-02-17T13:47:01;99974.16;;;9.09;100.00
64827;BME280;51265;53.972;12.286;2023-02-17T13:49:30;99988.38;;;9.11;100.00
64827;BME280;51265;53.972;12.286;2023-02-17T13:52:21;99978.84;;;9.08;100.00
64827;BME280;51265;53.972;12.286;2023-02-17T13:54:52;99965.09;;;9.08;100.00
64827;BME280;51265;53.972;12.286;2023-02-17T13:57:27;99979.13;;;9.07;100.00
64827;BME280;51265;53.972;12.286;2023-02-17T14:02:51;99978.03;;;9.08;100.00